Time;durP1;ratioP1;P1;durP2;ratioP2;P2;SDS_P1;SDS_P2;PMS_P1;PMS_P2;Temp;Humidity;BMP_temperature;BMP_pressure;BME280_temperature;BME280_humidity;BME280_pressure;Samples;Min_cycle;Max_cycle;Signal;HPM_P1;HPM_P2
2023/06/11 00:04:05;;;;;;;8.10;7.50;;;21.50;89.60;;;;;;10624834;27;20198;-82
2023/06/11 00:09:08;;;;;;;7.40;6.80;;;21.50;90.00;;;;;;10606970;27;20257;-82
2023/06/11 00:14:11;;;;;;;6.80;6.40;;;21.50;90.00;;;;;;10603867;27;20524;-83
2023/06/11 00:19:13;;;;;;;8.33;7.73;;;21.50;90.10;;;;;;10604867;27;20218;-82
2023/06/11 00:24:17;;;;;;;7.90;7.20;;;21.50;90.40;;;;;;10604619;27;20217;-82
2023/06/11 00:29:19;;;;;;;8.07;7.40;;;21.40;90.10;;;;;;10623214;27;20307;-82
2023/06/11 00:34:21;;;;;;;6.03;5.53;;;21.40;90.40;;;;;;10591881;27;20195;-83
2023/06/11 00:39:25;;;;;;;7.97;7.37;;;21.40;90.30;;;;;;10626287;27;20203;-84
2023/06/11 00:44:29;;;;;;;8.30;7.70;;;21.30;90.60;;;;;;10607559;27;20278;-84
2023/06/11 00:49:32;;;;;;;8.10;7.50;;;21.30;90.80;;;;;;10603357;27;20219;-83
2023/06/11 00:54:36;;;;;;;8.20;7.60;;;21.30;90.90;;;;;;10588415;27;20187;-83
2023/06/11 00:59:39;;;;;;;6.27;5.77;;;21.30;91.40;;;;;;10604225;27;20207;-84
2023/06/11 01:04:42;;;;;;;7.80;7.30;;;21.20;91.20;;;;;;10604547;27;20244;-83
2023/06/11 01:09:46;;;;;;;8.13;7.53;;;21.20;91.50;;;;;;10605714;27;20223;-83
2023/06/11 01:14:51;;;;;;;8.40;7.90;;;21.20;91.60;;;;;;10599897;27;20195;-83
2023/06/11 01:20:11;;;;;;;8.60;8.00;;;21.30;91.90;;;;;;10583289;27;20222;-83
2023/06/11 01:25:33;;;;;;;8.43;7.77;;;21.20;91.60;;;;;;10605248;27;20197;-83
2023/06/11 01:31:01;;;;;;;8.37;7.57;;;21.20;91.80;;;;;;10589576;28;20306;-85
2023/06/11 01:36:10;;;;;;;8.40;7.80;;;21.10;91.90;;;;;;10597747;28;20199;-82
2023/06/11 01:41:40;;;;;;;8.60;8.00;;;21.00;92.30;;;;;;10614765;28;20749;-83
2023/06/11 01:46:59;;;;;;;9.10;8.47;;;21.00;92.40;;;;;;10586121;28;20760;-83
2023/06/11 01:52:16;;;;;;;8.00;7.50;;;20.90;92.60;;;;;;10588239;28;20298;-83
2023/06/11 02:10:19;;;;;;;8.30;7.60;;;20.70;92.80;;;;;;10628585;27;20219;-84
2023/06/11 02:15:45;;;;;;;8.60;7.90;;;20.60;92.70;;;;;;10629450;27;20201;-83
2023/06/11 02:26:43;;;;;;;9.17;8.57;;;20.50;93.30;;;;;;10610375;27;20203;-82
2023/06/11 02:31:59;;;;;;;9.40;8.73;;;20.40;93.50;;;;;;10609883;27;20238;-83
2023/06/11 02:37:13;;;;;;;9.57;8.83;;;20.40;93.50;;;;;;10611689;27;20326;-82
2023/06/11 02:42:52;;;;;;;9.03;8.43;;;20.30;93.60;;;;;;10613277;27;20211;-83
2023/06/11 02:47:55;;;;;;;9.30;8.60;;;20.30;94.00;;;;;;10592131;27;20244;-83
2023/06/11 02:52:59;;;;;;;8.80;8.23;;;20.30;94.00;;;;;;10611019;27;20202;-82
2023/06/11 02:58:03;;;;;;;9.00;8.40;;;20.30;93.70;;;;;;10609641;27;20211;-82
2023/06/11 03:03:05;;;;;;;9.20;8.60;;;20.20;94.00;;;;;;10591523;27;20195;-83
2023/06/11 03:08:14;;;;;;;8.97;8.37;;;20.20;94.00;;;;;;10593205;27;20263;-82
2023/06/11 03:13:18;;;;;;;9.53;8.83;;;20.10;94.10;;;;;;10610771;27;20217;-83
2023/06/11 03:18:48;;;;;;;8.57;7.97;;;20.10;94.30;;;;;;10619427;22;20230;-84
2023/06/11 03:23:57;;;;;;;8.60;7.90;;;20.00;94.30;;;;;;10587198;27;20191;-84
2023/06/11 03:29:04;;;;;;;9.60;8.67;;;20.00;94.40;;;;;;10584211;27;20228;-82
2023/06/11 03:34:15;;;;;;;8.90;8.30;;;20.10;94.50;;;;;;10590807;27;20214;-84
2023/06/11 03:39:18;;;;;;;9.03;8.33;;;20.00;94.40;;;;;;10590628;27;20210;-82
2023/06/11 03:44:37;;;;;;;9.03;8.33;;;20.00;94.40;;;;;;10570952;27;20187;-84
2023/06/11 03:49:50;;;;;;;9.60;8.90;;;20.00;94.50;;;;;;10587699;27;20230;-84
2023/06/11 03:54:56;;;;;;;9.50;8.80;;;19.90;94.70;;;;;;10572530;27;20226;-84
2023/06/11 04:00:00;;;;;;;8.87;8.07;;;19.90;94.90;;;;;;10588167;27;20561;-84
2023/06/11 04:05:03;;;;;;;8.80;8.20;;;20.00;94.50;;;;;;10576793;27;20257;-83
2023/06/11 04:10:06;;;;;;;9.00;8.40;;;19.90;94.60;;;;;;10597676;27;20230;-84
2023/06/11 04:15:13;;;;;;;8.60;8.00;;;19.90;94.60;;;;;;10595814;27;20585;-84
2023/06/11 04:20:35;;;;;;;;;;;;;;;;;;;;;
2023/06/11 04:25:57;;;;;;;8.37;7.77;;;19.90;94.70;;;;;;10590158;27;20215;-84
2023/06/11 04:31:11;;;;;;;8.17;7.63;;;19.80;95.00;;;;;;10598561;27;20318;-84
2023/06/11 04:36:18;;;;;;;9.50;8.87;;;19.80;94.90;;;;;;10583556;27;20644;-83
2023/06/11 04:41:23;;;;;;;9.33;8.63;;;19.80;95.20;;;;;;10586294;27;20566;-81
2023/06/11 04:46:32;;;;;;;8.07;7.37;;;19.90;95.20;;;;;;10590340;27;20196;-84
2023/06/11 04:51:40;;;;;;;9.10;8.40;;;19.90;95.30;;;;;;10605908;27;20211;-84
2023/06/11 04:56:43;;;;;;;9.50;8.80;;;20.00;95.40;;;;;;10589190;27;20210;-84
2023/06/11 05:01:48;;;;;;;9.50;8.80;;;20.00;95.20;;;;;;10591550;27;20560;-84
2023/06/11 05:06:53;;;;;;;10.10;9.37;;;20.10;95.50;;;;;;10592995;27;20195;-83
2023/06/11 05:11:58;;;;;;;8.93;8.37;;;20.10;95.60;;;;;;10585179;27;20199;-84
2023/06/11 05:17:02;;;;;;;10.37;9.10;;;20.10;95.50;;;;;;10570967;27;20191;-84
2023/06/11 05:22:06;;;;;;;9.40;8.50;;;20.20;95.50;;;;;;10573404;27;20191;-84
2023/06/11 05:27:08;;;;;;;8.50;7.90;;;20.30;95.30;;;;;;10575121;27;20322;-84
2023/06/11 05:32:14;;;;;;;8.20;7.53;;;20.40;95.50;;;;;;10584820;28;20215;-85
2023/06/11 05:37:17;;;;;;;9.23;8.43;;;20.50;94.90;;;;;;10595599;27;20272;-84
2023/06/11 05:42:20;;;;;;;7.53;6.97;;;20.60;94.00;;;;;;10616755;27;20186;-84
2023/06/11 05:47:25;;;;;;;7.80;7.20;;;20.70;94.00;;;;;;10600619;27;20627;-85
2023/06/11 05:52:27;;;;;;;8.17;7.40;;;20.80;93.60;;;;;;10582244;27;20214;-81
2023/06/11 05:57:29;;;;;;;11.40;7.90;;;20.90;93.90;;;;;;10592207;27;20211;-84
2023/06/11 06:02:36;;;;;;;8.30;7.50;;;20.90;93.80;;;;;;10595680;27;20192;-85
2023/06/11 06:07:38;;;;;;;7.97;7.27;;;21.00;93.20;;;;;;10597365;27;20223;-85
2023/06/11 06:12:40;;;;;;;8.03;7.43;;;21.10;93.50;;;;;;10597530;27;20241;-85
2023/06/11 06:17:45;;;;;;;7.77;7.27;;;21.20;93.70;;;;;;10587540;27;20230;-85
2023/06/11 06:22:54;;;;;;;7.23;6.63;;;21.30;93.40;;;;;;10590399;27;20932;-85
2023/06/11 06:27:56;;;;;;;8.00;7.40;;;21.40;93.50;;;;;;10590957;27;20224;-85
2023/06/11 06:33:01;;;;;;;7.83;7.20;;;21.50;93.30;;;;;;10586710;27;20634;-84
2023/06/11 06:38:04;;;;;;;8.00;7.30;;;21.60;92.60;;;;;;10601413;27;20243;-85
2023/06/11 06:43:09;;;;;;;7.13;6.53;;;21.80;92.80;;;;;;10583679;27;20286;-85
2023/06/11 06:48:12;;;;;;;7.83;6.63;;;21.90;92.00;;;;;;10600086;27;20203;-85
2023/06/11 06:53:15;;;;;;;7.60;6.90;;;22.10;92.30;;;;;;10603017;27;20275;-85
2023/06/11 06:58:18;;;;;;;7.43;6.87;;;22.40;91.60;;;;;;10605196;27;20215;-85
2023/06/11 07:03:23;;;;;;;7.53;6.80;;;22.60;91.40;;;;;;10621866;27;20277;-85
2023/06/11 07:08:26;;;;;;;6.90;6.40;;;22.80;90.50;;;;;;10613933;27;20223;-84
2023/06/11 07:13:29;;;;;;;7.20;6.70;;;23.00;90.50;;;;;;10597316;27;20199;-86
2023/06/11 07:18:33;;;;;;;9.00;6.13;;;23.30;88.40;;;;;;10596333;27;20223;-85
2023/06/11 07:23:35;;;;;;;6.90;6.40;;;23.50;89.30;;;;;;10600170;27;20191;-85
2023/06/11 07:28:39;;;;;;;7.07;6.43;;;23.80;87.70;;;;;;10591963;27;20735;-86
2023/06/11 07:33:44;;;;;;;6.80;6.30;;;24.00;86.90;;;;;;10592074;27;20203;-85
2023/06/11 07:38:46;;;;;;;7.23;6.60;;;24.20;85.00;;;;;;10606425;27;20222;-86
2023/06/11 07:43:50;;;;;;;10.00;6.27;;;24.40;85.70;;;;;;10567597;27;20651;-86
2023/06/11 07:48:54;;;;;;;6.90;6.40;;;24.70;83.90;;;;;;10592386;27;20242;-85
2023/06/11 07:53:58;;;;;;;7.37;6.77;;;25.00;84.20;;;;;;10567715;27;20201;-85
2023/06/11 07:59:01;;;;;;;6.90;6.40;;;25.30;82.60;;;;;;10587633;27;20641;-85
2023/06/11 08:04:04;;;;;;;6.30;5.90;;;25.50;77.90;;;;;;10604248;27;20199;-84
2023/06/11 08:09:08;;;;;;;5.90;5.50;;;25.80;76.80;;;;;;10598871;27;20234;-86
2023/06/11 08:14:10;;;;;;;6.23;5.70;;;26.40;75.40;;;;;;10607214;27;20196;-83
2023/06/11 08:19:13;;;;;;;6.40;6.00;;;27.20;73.00;;;;;;10590006;27;20461;-85
2023/06/11 08:24:16;;;;;;;5.90;5.40;;;27.90;71.10;;;;;;10589933;27;20195;-85
2023/06/11 08:29:20;;;;;;;5.80;5.40;;;28.50;70.60;;;;;;10603749;27;20245;-84
2023/06/11 08:34:23;;;;;;;9.80;9.10;;;29.10;69.20;;;;;;10582753;27;20199;-84
2023/06/11 08:39:26;;;;;;;5.33;5.03;;;29.50;67.50;;;;;;10575693;27;20291;-84
2023/06/11 08:44:28;;;;;;;5.80;5.40;;;29.90;65.10;;;;;;10583096;27;20596;-86
2023/06/11 08:49:32;;;;;;;5.43;5.03;;;30.10;63.50;;;;;;10575358;27;20273;-86
2023/06/11 08:54:34;;;;;;;5.50;5.00;;;30.30;63.60;;;;;;10607354;27;20202;-85
2023/06/11 08:59:36;;;;;;;6.00;5.50;;;30.60;62.50;;;;;;10604339;27;20207;-87
2023/06/11 09:04:43;;;;;;;5.80;5.30;;;31.00;60.50;;;;;;10605227;27;20307;-85
2023/06/11 09:09:52;;;;;;;6.10;5.60;;;31.30;59.30;;;;;;10593988;27;20268;-85
2023/06/11 09:14:54;;;;;;;5.27;4.87;;;31.30;57.70;;;;;;10596450;27;20198;-85
2023/06/11 09:19:57;;;;;;;5.83;4.50;;;31.20;58.40;;;;;;10597336;27;20230;-86
2023/06/11 09:25:03;;;;;;;5.70;5.30;;;31.70;59.10;;;;;;10598129;27;20196;-87
2023/06/11 09:30:10;;;;;;;4.90;4.60;;;32.40;56.80;;;;;;10597992;27;20313;-86
2023/06/11 09:35:14;;;;;;;5.03;4.63;;;32.80;56.10;;;;;;10572341;28;20219;-87
2023/06/11 09:40:18;;;;;;;4.57;4.33;;;33.40;53.40;;;;;;10595875;28;20223;-86
2023/06/11 09:45:23;;;;;;;4.70;4.47;;;34.10;52.60;;;;;;10585804;28;20182;-86
2023/06/11 09:50:27;;;;;;;4.43;4.07;;;34.90;51.70;;;;;;10618849;28;20230;-85
2023/06/11 09:55:30;;;;;;;5.53;5.13;;;36.00;50.60;;;;;;10593241;28;20229;-87
2023/06/11 10:00:32;;;;;;;5.32;4.82;;;37.20;47.90;;;;;;10610872;28;20657;-85
2023/06/11 10:05:36;;;;;;;5.07;4.68;;;38.30;47.70;;;;;;10579285;28;20646;-87
2023/06/11 10:10:42;;;;;;;5.03;4.72;;;39.30;45.50;;;;;;10578550;28;20555;-87
2023/06/11 10:15:50;;;;;;;5.35;4.63;;;40.20;41.80;;;;;;10598431;28;20190;-87
2023/06/11 10:20:54;;;;;;;4.28;3.88;;;41.00;41.90;;;;;;10591833;27;20674;-87
2023/06/11 10:25:57;;;;;;;5.15;4.85;;;40.80;38.60;;;;;;10605160;27;20524;-86
2023/06/11 10:30:59;;;;;;;5.53;4.70;;;38.40;40.70;;;;;;10609452;27;20254;-84
2023/06/11 10:36:03;;;;;;;5.97;5.47;;;36.10;42.10;;;;;;10607076;27;20653;-85
2023/06/11 10:41:05;;;;;;;5.23;4.93;;;34.20;44.80;;;;;;10603682;27;20261;-84
2023/06/11 10:46:11;;;;;;;5.50;5.10;;;32.90;47.70;;;;;;10588717;27;20192;-85
2023/06/11 10:51:15;;;;;;;6.10;5.50;;;32.00;46.50;;;;;;10613298;27;20572;-86
2023/06/11 10:56:21;;;;;;;5.60;5.10;;;31.00;49.10;;;;;;10607458;27;20200;-84
2023/06/11 11:01:23;;;;;;;6.10;5.37;;;30.30;50.60;;;;;;10604878;27;20298;-84
2023/06/11 11:06:28;;;;;;;5.60;5.10;;;29.70;51.70;;;;;;10590314;27;20199;-84
2023/06/11 11:11:30;;;;;;;6.53;6.03;;;29.30;51.60;;;;;;10607132;27;20214;-85
2023/06/11 11:16:32;;;;;;;6.93;6.27;;;28.80;51.80;;;;;;10602443;27;20724;-85
2023/06/11 11:21:36;;;;;;;5.23;4.73;;;28.40;52.20;;;;;;10594968;27;20567;-85
2023/06/11 11:26:42;;;;;;;5.77;5.37;;;28.20;53.60;;;;;;10612189;27;20200;-85
2023/06/11 11:31:46;;;;;;;6.63;6.20;;;28.00;53.10;;;;;;10612823;27;20215;-84
2023/06/11 11:36:50;;;;;;;6.23;5.83;;;27.80;53.70;;;;;;10620553;27;20202;-83
2023/06/11 11:41:52;;;;;;;6.73;6.23;;;27.70;54.80;;;;;;10608912;27;20641;-84
2023/06/11 11:46:57;;;;;;;7.17;6.47;;;27.60;54.40;;;;;;10608311;27;20198;-85
2023/06/11 11:52:00;;;;;;;5.80;5.40;;;27.50;54.20;;;;;;10601385;27;20221;-84
2023/06/11 11:57:03;;;;;;;6.20;5.70;;;27.40;54.00;;;;;;10625314;27;20207;-84
2023/06/11 12:02:06;;;;;;;6.63;5.90;;;27.50;53.90;;;;;;10593212;27;20215;-84
2023/06/11 12:07:13;;;;;;;5.63;4.80;;;27.50;53.50;;;;;;10597280;27;20278;-85
2023/06/11 12:12:15;;;;;;;6.00;5.50;;;27.50;54.40;;;;;;10621093;27;20202;-84
2023/06/11 12:17:17;;;;;;;5.80;5.30;;;27.60;53.70;;;;;;10633316;27;20283;-84
2023/06/11 12:22:21;;;;;;;6.43;5.93;;;27.50;53.70;;;;;;10597978;27;20273;-84
2023/06/11 12:27:23;;;;;;;6.00;5.60;;;27.50;52.40;;;;;;10609679;27;20267;-84
2023/06/11 12:32:25;;;;;;;5.30;5.00;;;27.50;53.50;;;;;;10619228;27;20626;-83
2023/06/11 12:37:30;;;;;;;6.37;5.90;;;27.70;53.10;;;;;;10597013;27;20226;-85
2023/06/11 12:42:33;;;;;;;6.57;5.97;;;27.60;52.00;;;;;;10593277;27;20223;-84
2023/06/11 12:47:35;;;;;;;6.27;5.70;;;27.60;53.40;;;;;;10597797;27;20241;-84
2023/06/11 12:52:41;;;;;;;5.70;5.30;;;27.60;52.80;;;;;;10615227;27;20191;-86
2023/06/11 12:57:43;;;;;;;6.07;5.57;;;27.50;53.40;;;;;;10576680;27;20310;-83
2023/06/11 13:02:46;;;;;;;6.27;5.77;;;27.50;52.70;;;;;;10613981;27;20222;-85
2023/06/11 13:07:51;;;;;;;6.30;5.80;;;27.40;52.20;;;;;;10601835;27;20271;-86
2023/06/11 13:12:54;;;;;;;6.20;5.60;;;27.50;52.50;;;;;;10581910;27;20725;-85
2023/06/11 13:17:57;;;;;;;6.60;6.10;;;27.50;52.90;;;;;;10597724;27;20753;-85
2023/06/11 13:23:00;;;;;;;6.00;5.60;;;27.40;52.60;;;;;;10590329;27;20306;-85
2023/06/11 13:28:02;;;;;;;6.67;6.00;;;27.40;53.00;;;;;;10603663;27;20219;-84
2023/06/11 13:33:04;;;;;;;6.40;6.00;;;27.50;52.60;;;;;;10582296;28;20199;-86
2023/06/11 13:38:08;;;;;;;6.13;5.70;;;27.60;52.60;;;;;;10604635;28;20294;-85
2023/06/11 13:43:10;;;;;;;5.50;5.20;;;27.50;52.90;;;;;;10590628;28;20211;-83
2023/06/11 13:48:13;;;;;;;6.83;6.33;;;27.40;53.90;;;;;;10595001;28;20227;-86
2023/06/11 13:53:16;;;;;;;6.80;6.30;;;27.30;54.60;;;;;;10582293;28;20306;-84
2023/06/11 13:58:20;;;;;;;5.80;5.40;;;27.30;52.00;;;;;;10613282;27;20310;-85
2023/06/11 14:03:22;;;;;;;5.27;4.87;;;27.30;52.30;;;;;;10614542;27;20627;-86
2023/06/11 14:08:26;;;;;;;5.87;5.37;;;27.20;51.00;;;;;;10598828;27;20204;-85
2023/06/11 14:13:28;;;;;;;6.20;5.80;;;27.20;51.50;;;;;;10610441;27;20637;-84
2023/06/11 14:18:30;;;;;;;5.70;5.10;;;27.10;52.20;;;;;;10625143;27;20233;-84
2023/06/11 14:23:34;;;;;;;5.80;5.30;;;27.20;51.10;;;;;;10583723;27;20216;-84
2023/06/11 14:28:36;;;;;;;6.50;6.00;;;27.10;51.00;;;;;;10601571;27;20210;-85
2023/06/11 14:33:38;;;;;;;6.20;5.70;;;27.10;52.90;;;;;;10602921;27;20188;-85
2023/06/11 14:38:42;;;;;;;5.70;5.30;;;27.00;52.90;;;;;;10613803;27;20224;-84
2023/06/11 14:43:44;;;;;;;5.80;5.40;;;27.00;50.70;;;;;;10618586;27;20296;-85
2023/06/11 14:48:46;;;;;;;6.30;5.67;;;27.00;49.50;;;;;;10599770;27;20215;-86
2023/06/11 14:53:49;;;;;;;5.23;4.83;;;27.00;51.30;;;;;;10605183;27;20196;-86
2023/06/11 14:58:51;;;;;;;5.43;5.03;;;27.00;52.50;;;;;;10623075;27;20260;-85
2023/06/11 15:03:53;;;;;;;5.80;5.40;;;27.00;53.10;;;;;;10608100;27;20455;-85
2023/06/11 15:08:58;;;;;;;6.23;5.83;;;27.00;51.70;;;;;;10616514;27;20215;-85
2023/06/11 15:14:00;;;;;;;5.93;5.50;;;27.00;50.90;;;;;;10603513;27;20220;-83
2023/06/11 15:19:02;;;;;;;6.20;5.70;;;27.00;51.30;;;;;;10606082;27;20233;-85
2023/06/11 15:24:06;;;;;;;4.93;4.63;;;27.00;50.50;;;;;;10616525;27;20219;-84
2023/06/11 15:29:10;;;;;;;5.70;5.30;;;26.90;51.10;;;;;;10617717;27;20304;-85
2023/06/11 15:34:12;;;;;;;5.90;5.50;;;26.90;51.40;;;;;;10609162;27;20187;-84
2023/06/11 15:39:15;;;;;;;5.83;5.33;;;26.90;52.50;;;;;;10573511;27;20203;-84
2023/06/11 15:44:17;;;;;;;5.00;4.70;;;26.90;52.30;;;;;;10609410;27;20222;-83
2023/06/11 15:49:20;;;;;;;6.10;5.70;;;26.90;51.70;;;;;;10609613;27;20472;-84
2023/06/11 15:54:23;;;;;;;4.87;4.57;;;26.90;50.90;;;;;;10617412;27;20649;-85
2023/06/11 15:59:25;;;;;;;6.10;5.50;;;26.90;52.00;;;;;;10605846;27;20250;-84
2023/06/11 16:04:27;;;;;;;5.37;4.97;;;26.90;50.10;;;;;;10613553;27;20219;-85
2023/06/11 16:09:31;;;;;;;5.37;5.00;;;26.80;52.60;;;;;;10599448;27;20232;-85
2023/06/11 16:14:33;;;;;;;6.97;6.47;;;26.80;48.80;;;;;;10606083;27;20219;-85
2023/06/11 16:19:35;;;;;;;6.20;5.70;;;26.80;50.80;;;;;;10620876;27;20276;-85
2023/06/11 16:24:38;;;;;;;8.77;8.17;;;26.80;49.90;;;;;;10617827;27;20223;-84
2023/06/11 16:29:40;;;;;;;6.87;6.37;;;26.80;50.40;;;;;;10620253;27;20716;-85
2023/06/11 16:34:42;;;;;;;7.50;7.00;;;26.70;51.60;;;;;;10584027;27;20202;-84
2023/06/11 16:39:46;;;;;;;6.30;5.87;;;26.70;52.70;;;;;;10613286;27;20636;-84
2023/06/11 16:44:48;;;;;;;5.90;5.50;;;26.60;52.60;;;;;;10607573;27;20215;-84
2023/06/11 16:49:50;;;;;;;6.10;5.63;;;26.50;51.30;;;;;;10603132;27;20607;-84
2023/06/11 16:54:55;;;;;;;6.27;5.73;;;26.60;52.30;;;;;;10601203;27;20243;-85
2023/06/11 17:00:00;;;;;;;6.33;5.90;;;26.50;52.60;;;;;;10588806;28;20227;-85
2023/06/11 17:05:02;;;;;;;5.90;5.40;;;26.40;52.80;;;;;;10632679;27;20226;-85
2023/06/11 17:10:07;;;;;;;6.63;5.80;;;26.40;51.90;;;;;;10621530;27;20212;-83
2023/06/11 17:15:10;;;;;;;6.23;5.83;;;26.50;51.50;;;;;;10605013;27;20251;-83
2023/06/11 17:20:13;;;;;;;6.17;5.77;;;26.40;52.30;;;;;;10598276;27;20227;-85
2023/06/11 17:25:17;;;;;;;5.90;5.50;;;26.40;53.60;;;;;;10624152;27;20282;-85
2023/06/11 17:30:20;;;;;;;6.20;5.70;;;26.30;52.60;;;;;;10621199;27;20306;-85
2023/06/11 17:35:22;;;;;;;6.93;6.33;;;26.30;51.70;;;;;;10603041;28;20195;-85
2023/06/11 17:40:27;;;;;;;5.80;5.40;;;26.20;51.50;;;;;;10624029;28;20311;-84
2023/06/11 17:45:29;;;;;;;6.30;5.80;;;26.20;54.20;;;;;;10624804;28;20244;-85
2023/06/11 17:50:32;;;;;;;6.47;5.90;;;26.10;55.10;;;;;;10600167;28;20322;-84
2023/06/11 17:55:35;;;;;;;5.37;5.00;;;26.00;55.60;;;;;;10627614;28;20638;-84
2023/06/11 18:00:37;;;;;;;6.30;5.80;;;25.90;54.80;;;;;;10598944;28;20248;-85
2023/06/11 18:05:40;;;;;;;6.53;5.90;;;25.80;56.60;;;;;;10594148;28;20208;-84
2023/06/11 18:10:43;;;;;;;6.97;6.40;;;25.70;57.20;;;;;;10579843;28;20254;-85
2023/06/11 18:15:45;;;;;;;6.10;5.70;;;25.60;54.60;;;;;;10583682;28;20242;-83
2023/06/11 18:20:49;;;;;;;7.10;6.20;;;25.50;57.50;;;;;;10602052;28;20255;-84
2023/06/11 18:25:53;;;;;;;5.87;5.47;;;25.50;53.60;;;;;;10604031;28;20207;-85
2023/06/11 18:30:55;;;;;;;6.03;5.63;;;25.40;57.10;;;;;;10612077;28;20708;-84
2023/06/11 18:35:57;;;;;;;6.20;5.60;;;25.30;57.30;;;;;;10594931;28;20654;-85
2023/06/11 18:41:01;;;;;;;6.80;6.27;;;25.30;57.90;;;;;;10594318;27;20223;-83
2023/06/11 18:46:03;;;;;;;6.87;6.37;;;25.20;55.40;;;;;;10587496;27;20229;-85
2023/06/11 18:51:05;;;;;;;6.53;6.03;;;25.20;57.30;;;;;;10586517;27;20203;-83
2023/06/11 18:56:08;;;;;;;5.77;5.47;;;25.10;56.30;;;;;;10591711;27;20195;-85
2023/06/11 19:01:10;;;;;;;6.60;6.00;;;25.10;56.40;;;;;;10603813;27;20662;-85
2023/06/11 19:06:12;;;;;;;5.87;5.47;;;25.10;57.70;;;;;;10596279;27;20203;-85
2023/06/11 19:11:16;;;;;;;6.20;5.70;;;25.00;57.80;;;;;;10572551;27;20256;-85
2023/06/11 19:16:18;;;;;;;6.00;5.60;;;25.00;59.20;;;;;;10606099;27;20196;-83
2023/06/11 19:21:22;;;;;;;6.13;5.73;;;24.90;58.20;;;;;;10575398;27;20230;-84
2023/06/11 19:26:26;;;;;;;6.10;5.70;;;24.90;57.20;;;;;;10606392;27;20195;-85
2023/06/11 19:31:28;;;;;;;6.53;6.03;;;24.80;59.10;;;;;;10606697;27;20207;-85
2023/06/11 19:36:30;;;;;;;5.77;5.37;;;24.70;60.70;;;;;;10620169;27;20208;-84
2023/06/11 19:41:34;;;;;;;6.20;5.80;;;24.70;60.40;;;;;;10606009;27;20387;-85
2023/06/11 19:46:36;;;;;;;6.47;6.00;;;24.60;59.30;;;;;;10583333;27;20233;-84
2023/06/11 19:51:40;;;;;;;6.87;6.30;;;24.50;59.10;;;;;;10599213;27;20215;-84
2023/06/11 19:56:44;;;;;;;6.67;6.17;;;24.40;59.80;;;;;;10601028;27;20245;-84
2023/06/11 20:01:47;;;;;;;6.60;6.10;;;24.30;60.10;;;;;;10581786;27;20215;-84
2023/06/11 20:06:49;;;;;;;12.13;6.07;;;24.20;60.60;;;;;;10605314;27;20208;-85
2023/06/11 20:11:56;;;;;;;6.73;6.23;;;24.20;60.20;;;;;;10566766;27;20239;-84
2023/06/11 20:16:58;;;;;;;6.30;5.90;;;24.00;60.90;;;;;;10566144;27;20626;-85
2023/06/11 20:22:00;;;;;;;6.37;5.80;;;23.90;61.80;;;;;;10605685;27;20232;-85
2023/06/11 20:27:05;;;;;;;7.40;6.80;;;23.90;61.50;;;;;;10613693;27;20329;-84
2023/06/11 20:32:08;;;;;;;7.00;6.40;;;23.80;62.50;;;;;;10622246;27;20203;-85
2023/06/11 20:37:10;;;;;;;8.90;6.90;;;23.70;62.30;;;;;;10613740;27;20683;-85
2023/06/11 20:42:14;;;;;;;6.60;6.10;;;23.60;63.20;;;;;;10614535;27;20246;-85
2023/06/11 20:47:16;;;;;;;6.73;6.13;;;23.50;66.00;;;;;;10593159;27;20221;-84
2023/06/11 20:52:18;;;;;;;6.67;6.07;;;23.40;65.30;;;;;;10610550;27;20214;-85
2023/06/11 20:57:22;;;;;;;6.23;5.83;;;23.40;65.50;;;;;;10607941;27;20252;-85
2023/06/11 21:02:24;;;;;;;8.60;6.03;;;23.30;65.30;;;;;;10607482;27;20225;-85
2023/06/11 21:07:26;;;;;;;7.20;6.57;;;23.20;65.50;;;;;;10569461;27;20211;-85
2023/06/11 21:12:29;;;;;;;7.27;6.57;;;23.20;65.90;;;;;;10602208;27;20192;-84
2023/06/11 21:17:32;;;;;;;6.43;6.03;;;23.10;65.40;;;;;;10605887;27;20229;-85
2023/06/11 21:22:34;;;;;;;6.90;6.27;;;23.00;65.40;;;;;;10604010;27;20207;-84
2023/06/11 21:27:38;;;;;;;6.97;6.47;;;22.90;66.50;;;;;;10605274;27;20211;-85
2023/06/11 21:32:41;;;;;;;6.73;6.10;;;22.90;66.70;;;;;;10616665;27;20256;-85
2023/06/11 21:37:43;;;;;;;6.97;6.47;;;22.80;67.50;;;;;;10609070;28;20222;-85
2023/06/11 21:42:46;;;;;;;6.80;6.30;;;22.70;67.60;;;;;;10595706;28;20214;-84
2023/06/11 21:47:48;;;;;;;7.30;6.67;;;22.60;66.80;;;;;;10599743;28;20223;-84
2023/06/11 21:52:52;;;;;;;7.03;6.53;;;22.60;67.50;;;;;;10608566;28;20180;-85
2023/06/11 21:57:56;;;;;;;6.70;6.30;;;22.50;67.70;;;;;;10603006;28;20212;-84
2023/06/11 22:02:58;;;;;;;7.33;6.83;;;22.40;68.00;;;;;;10615130;28;20223;-85
2023/06/11 22:08:00;;;;;;;7.17;6.57;;;22.40;68.80;;;;;;10609571;28;20226;-83
2023/06/11 22:13:04;;;;;;;6.60;6.20;;;22.30;68.20;;;;;;10593986;28;20352;-84
2023/06/11 22:18:06;;;;;;;7.60;6.90;;;22.20;68.10;;;;;;10609331;27;20653;-84
2023/06/11 22:23:09;;;;;;;6.57;6.10;;;22.10;68.20;;;;;;10597515;27;20292;-85
2023/06/11 22:28:12;;;;;;;7.80;7.20;;;22.10;67.10;;;;;;10602426;27;20400;-85
2023/06/11 22:33:14;;;;;;;7.20;6.63;;;22.00;66.80;;;;;;10604185;27;20650;-84
2023/06/11 22:38:16;;;;;;;6.50;6.00;;;21.90;67.90;;;;;;10598901;27;20279;-84
2023/06/11 22:43:20;;;;;;;6.30;5.80;;;21.80;68.20;;;;;;10611627;27;20335;-83
2023/06/11 22:48:22;;;;;;;6.27;5.80;;;21.80;68.50;;;;;;10576415;27;20211;-83
2023/06/11 22:53:27;;;;;;;6.17;5.77;;;21.70;68.70;;;;;;10597815;27;20560;-84
2023/06/11 22:58:31;;;;;;;6.80;6.30;;;21.70;67.90;;;;;;10608069;27;20216;-83
2023/06/11 23:03:33;;;;;;;6.97;6.23;;;21.70;67.70;;;;;;10608464;27;20260;-84
2023/06/11 23:08:35;;;;;;;6.70;6.20;;;21.60;67.30;;;;;;10604860;27;20208;-82
2023/06/11 23:13:38;;;;;;;5.97;5.57;;;21.60;68.50;;;;;;10614938;27;20200;-81
2023/06/11 23:18:41;;;;;;;6.70;6.10;;;21.50;68.50;;;;;;10599635;27;20231;-84
2023/06/11 23:23:44;;;;;;;6.20;5.67;;;21.50;68.20;;;;;;10625646;27;20207;-83
2023/06/11 23:28:48;;;;;;;6.17;5.70;;;21.50;67.40;;;;;;10615607;27;20294;-84
2023/06/11 23:33:50;;;;;;;7.17;6.50;;;21.40;67.80;;;;;;10597472;27;20199;-85
2023/06/11 23:38:53;;;;;;;5.57;5.07;;;21.40;68.70;;;;;;10613821;27;20219;-82
2023/06/11 23:43:56;;;;;;;6.20;5.80;;;21.30;68.90;;;;;;10595413;27;20215;-85
2023/06/11 23:48:58;;;;;;;6.43;5.93;;;21.30;68.30;;;;;;10596948;27;20219;-84
2023/06/11 23:54:00;;;;;;;6.30;5.80;;;21.30;68.40;;;;;;10614041;27;20196;-84
2023/06/11 23:59:04;;;;;;;6.47;5.40;;;21.20;68.70;;;;;;10597097;27;20218;-85
